Time;durP1;ratioP1;P1;durP2;ratioP2;P2;SDS_P1;SDS_P2;PMS_P1;PMS_P2;Temp;Humidity;BMP_temperature;BMP_pressure;BME280_temperature;BME280_humidity;BME280_pressure;Samples;Min_cycle;Max_cycle;Signal;HPM_P1;HPM_P2
2022/11/27 00:00:06;;;;;;;;;;;;;;;25.36;45.32;97994.63;604586;234;65054;-65
2022/11/27 00:02:35;;;;;;;;;;;;;;;25.35;44.36;97993.03;604460;234;44007;-65
2022/11/27 00:05:03;;;;;;;;;;;;;;;25.35;47.61;97989.54;604614;234;64682;-65
2022/11/27 00:07:31;;;;;;;;;;;;;;;25.34;45.61;97996.78;604634;234;62886;-65
2022/11/27 00:09:58;;;;;;;;;;;;;;;25.34;46.16;97996.78;604597;234;65459;-65
2022/11/27 00:12:26;;;;;;;;;;;;;;;25.33;46.44;97991.70;604586;234;66387;-71
2022/11/27 00:14:53;;;;;;;;;;;;;;;25.32;44.71;97995.45;604612;234;65041;-71
2022/11/27 00:17:20;;;;;;;;;;;;;;;25.32;46.02;97998.14;604557;234;66921;-65
2022/11/27 00:19:48;;;;;;;;;;;;;;;25.30;44.03;98003.81;604598;234;67153;-65
2022/11/27 00:22:15;;;;;;;;;;;;;;;25.30;45.15;98003.81;604584;234;65126;-65
2022/11/27 00:24:43;;;;;;;;;;;;;;;25.29;44.98;98007.59;604575;234;66819;-65
2022/11/27 00:27:10;;;;;;;;;;;;;;;25.28;44.43;98008.66;604601;234;66836;-65
2022/11/27 00:29:38;;;;;;;;;;;;;;;25.28;46.18;98008.66;604574;234;65798;-71
2022/11/27 00:32:07;;;;;;;;;;;;;;;25.28;45.77;98005.97;604621;234;66943;-71
2022/11/27 00:34:34;;;;;;;;;;;;;;;25.27;45.16;98000.88;604583;234;66822;-71
2022/11/27 00:37:02;;;;;;;;;;;;;;;25.25;46.23;98011.89;604601;234;62973;-71
2022/11/27 00:39:29;;;;;;;;;;;;;;;25.25;44.94;98018.08;604576;234;64580;-71
2022/11/27 00:41:57;;;;;;;;;;;;;;;25.24;45.52;98012.98;604606;234;64711;-71
2022/11/27 00:44:25;;;;;;;;;;;;;;;25.24;46.55;98008.41;604580;234;65063;-71
2022/11/27 00:46:52;;;;;;;;;;;;;;;25.22;44.74;98013.25;603952;234;67106;-71
2022/11/27 00:49:20;;;;;;;;;;;;;;;25.23;46.21;98022.13;603307;235;66935;-71
2022/11/27 00:51:48;;;;;;;;;;;;;;;25.21;47.27;98017.03;603292;235;65095;-71
2022/11/27 00:54:15;;;;;;;;;;;;;;;25.20;46.87;98022.67;603304;235;64669;-71
2022/11/27 00:56:43;;;;;;;;;;;;;;;25.19;45.95;98019.18;603373;235;64752;-71
2022/11/27 00:59:10;;;;;;;;;;;;;;;25.19;45.44;98016.49;603276;235;63058;-71
2022/11/27 01:01:39;;;;;;;;;;;;;;;25.17;45.00;98021.33;603332;235;64776;-72
2022/11/27 01:04:07;;;;;;;;;;;;;;;25.18;45.40;98019.44;603316;235;66774;-71
2022/11/27 01:06:35;;;;;;;;;;;;;;;25.17;46.96;98017.84;603283;235;62970;-71
2022/11/27 01:09:03;;;;;;;;;;;;;;;25.16;45.77;98008.97;603291;235;64753;-71
2022/11/27 01:11:32;;;;;;;;;;;;;;;25.15;47.22;98010.03;603304;235;64774;-71
2022/11/27 01:14:01;;;;;;;;;;;;;;;25.15;46.03;98003.86;603311;235;63039;-71
2022/11/27 01:16:29;;;;;;;;;;;;;;;25.13;44.00;98006.80;603296;235;66877;-71
2022/11/27 01:18:57;;;;;;;;;;;;;;;25.12;47.86;98012.45;603313;235;66983;-71
2022/11/27 01:21:26;;;;;;;;;;;;;;;25.11;47.46;98003.58;603299;235;65174;-71
2022/11/27 01:23:54;;;;;;;;;;;;;;;25.11;46.67;98005.47;603301;235;65462;-71
2022/11/27 01:26:22;;;;;;;;;;;;;;;25.11;46.39;98010.84;603305;235;64578;-71
2022/11/27 01:28:53;;;;;;;;;;;;;;;25.09;46.65;98011.11;603294;235;63800;-71
2022/11/27 01:31:22;;;;;;;;;;;;;;;25.09;45.70;98010.31;603281;235;66991;-72
2022/11/27 01:33:54;;;;;;;;;;;;;;;25.08;47.20;98006.02;603309;235;67102;-72
2022/11/27 01:36:22;;;;;;;;;;;;;;;25.08;47.17;97997.95;603366;235;62849;-72
2022/11/27 01:38:50;;;;;;;;;;;;;;;25.07;47.19;98007.08;603323;235;64705;-72
2022/11/27 01:41:19;;;;;;;;;;;;;;;25.06;46.81;98014.34;603335;235;64603;-70
2022/11/27 01:43:48;;;;;;;;;;;;;;;25.06;46.48;98002.79;603323;235;65162;-70
2022/11/27 01:46:33;;;;;;;;;;;;;;;25.05;46.54;97998.50;603547;234;64782;-70
2022/11/27 01:49:11;;;;;;;;;;;;;;;25.03;47.95;97996.87;604616;234;66490;-71
2022/11/27 01:51:43;;;;;;;;;;;;;;;25.02;46.30;97989.09;604219;234;65062;-70
2022/11/27 01:54:11;;;;;;;;;;;;;;;25.02;46.41;97989.09;604632;234;66383;-71
2022/11/27 01:56:40;;;;;;;;;;;;;;;25.00;48.15;97992.05;604606;234;66673;-71
2022/11/27 01:59:08;;;;;;;;;;;;;;;24.99;46.40;97987.75;604613;234;65245;-71
2022/11/27 02:01:35;;;;;;;;;;;;;;;24.98;44.65;97988.02;604577;234;66766;-71
2022/11/27 02:04:03;;;;;;;;;;;;;;;24.99;47.35;97986.92;604628;234;66508;-71
2022/11/27 02:06:31;;;;;;;;;;;;;;;24.97;49.45;97984.52;604670;234;64981;-71
2022/11/27 02:08:58;;;;;;;;;;;;;;;24.95;48.44;97977.81;604617;234;66698;-71
2022/11/27 02:11:28;;;;;;;;;;;;;;;24.94;46.98;97977.02;604633;234;66582;-71
2022/11/27 02:13:57;;;;;;;;;;;;;;;24.93;47.21;97980.75;604588;234;62713;-71
2022/11/27 02:16:35;;;;;;;;;;;;;;;24.92;46.77;97978.36;603418;234;66909;-71
2022/11/27 02:19:20;;;;;;;;;;;;;;;24.92;46.84;97978.36;604661;234;66952;-71
2022/11/27 02:21:55;;;;;;;;;;;;;;;24.91;47.01;97982.11;604668;234;62708;-70
2022/11/27 02:24:25;;;;;;;;;;;;;;;24.89;47.97;97977.02;604450;234;64565;-71
2022/11/27 02:26:57;;;;;;;;;;;;;;;24.89;48.72;97970.84;604605;234;66699;-71
2022/11/27 02:29:26;;;;;;;;;;;;;;;24.88;49.87;97977.28;604600;234;65018;-71
2022/11/27 02:32:07;;;;;;;;;;;;;;;24.86;48.13;97974.88;604632;234;64726;-71
2022/11/27 02:34:48;;;;;;;;;;;;;;;24.85;50.37;97975.94;604561;234;72220;-71
2022/11/27 02:37:20;;;;;;;;;;;;;;;24.85;47.34;97983.20;604643;234;65426;-71
2022/11/27 02:39:58;;;;;;;;;;;;;;;24.83;47.04;97983.49;604660;234;67032;-71
2022/11/27 02:42:27;;;;;;;;;;;;;;;24.83;45.72;97986.19;604476;234;66636;-71
2022/11/27 02:44:57;;;;;;;;;;;;;;;24.81;46.58;97982.95;604550;234;65146;-70
2022/11/27 02:47:26;;;;;;;;;;;;;;;24.80;47.48;97981.36;604384;234;66942;-71
2022/11/27 02:49:55;;;;;;;;;;;;;;;24.80;45.57;97981.36;604590;234;65019;-71
2022/11/27 02:52:25;;;;;;;;;;;;;;;24.78;46.20;97984.30;604643;234;62956;-71
2022/11/27 02:54:54;;;;;;;;;;;;;;;24.78;47.11;97980.81;604591;234;67018;-64
2022/11/27 02:57:23;;;;;;;;;;;;;;;24.77;46.50;97985.39;604522;234;66845;-64
2022/11/27 02:59:53;;;;;;;;;;;;;;;24.77;47.15;97988.08;604545;234;65063;-64
2022/11/27 03:02:22;;;;;;;;;;;;;;;24.78;46.51;97991.56;604608;234;67026;-65
2022/11/27 03:04:51;;;;;;;;;;;;;;;24.76;46.20;97991.02;604437;234;66838;-65
2022/11/27 03:07:20;;;;;;;;;;;;;;;24.75;47.84;97979.47;604656;234;65797;-65
2022/11/27 03:09:49;;;;;;;;;;;;;;;24.74;46.40;97983.22;604509;234;64484;-65
2022/11/27 03:12:18;;;;;;;;;;;;;;;24.73;46.38;97980.82;604568;234;64794;-64
2022/11/27 03:14:46;;;;;;;;;;;;;;;24.72;45.68;97988.09;604558;234;65059;-65
2022/11/27 03:17:24;;;;;;;;;;;;;;;24.72;45.97;97984.59;604605;234;67281;-65
2022/11/27 03:19:59;;;;;;;;;;;;;;;24.72;47.71;97989.97;604247;234;64568;-65
2022/11/27 03:22:26;;;;;;;;;;;;;;;24.71;46.10;97989.14;604670;234;65022;-65
2022/11/27 03:24:54;;;;;;;;;;;;;;;24.71;47.91;97982.97;604537;234;66757;-65
2022/11/27 03:27:23;;;;;;;;;;;;;;;24.69;46.17;97988.63;604599;234;66806;-65
2022/11/27 03:29:52;;;;;;;;;;;;;;;24.68;49.62;97992.38;604574;234;64970;-65
2022/11/27 03:32:20;;;;;;;;;;;;;;;24.67;49.12;97992.66;604604;234;66928;-64
2022/11/27 03:34:48;;;;;;;;;;;;;;;24.66;46.92;97988.34;604657;234;66931;-64
2022/11/27 03:37:16;;;;;;;;;;;;;;;24.67;49.05;98004.22;604555;234;65038;-64
2022/11/27 03:39:43;;;;;;;;;;;;;;;24.65;46.28;97998.30;604557;234;67051;-64
2022/11/27 03:42:31;;;;;;;;;;;;;;;24.64;48.18;97994.02;604598;234;66826;-64
2022/11/27 03:45:03;;;;;;;;;;;;;;;24.63;46.24;97994.27;604509;234;64949;-65
2022/11/27 03:47:48;;;;;;;;;;;;;;;24.62;48.58;97993.47;603602;234;64604;-64
2022/11/27 03:50:17;;;;;;;;;;;;;;;24.61;46.80;97994.55;603365;235;66838;-64
2022/11/27 03:52:49;;;;;;;;;;;;;;;24.61;45.90;97991.04;603354;235;65078;-64
2022/11/27 03:55:19;;;;;;;;;;;;;;;24.59;46.01;97988.64;603194;235;66969;-65
2022/11/27 03:57:48;;;;;;;;;;;;;;;24.59;47.03;97986.75;603188;235;66567;-65
2022/11/27 04:00:16;;;;;;;;;;;;;;;24.58;46.53;97995.07;603267;235;65011;-71
2022/11/27 04:02:48;;;;;;;;;;;;;;;24.57;45.88;97999.65;603274;235;66949;-71
2022/11/27 04:05:15;;;;;;;;;;;;;;;24.56;47.09;97992.67;603251;235;65006;-71
2022/11/27 04:07:43;;;;;;;;;;;;;;;24.54;46.70;97989.44;603278;235;62889;-71
2022/11/27 04:10:11;;;;;;;;;;;;;;;24.55;45.40;97984.87;603327;235;64718;-71
2022/11/27 04:12:38;;;;;;;;;;;;;;;24.54;45.43;97994.02;603273;235;66870;-70
2022/11/27 04:15:06;;;;;;;;;;;;;;;24.52;47.01;97991.59;603308;235;64920;-71
2022/11/27 04:17:34;;;;;;;;;;;;;;;24.52;45.94;97988.09;603337;235;66989;-71
2022/11/27 04:20:02;;;;;;;;;;;;;;;24.51;47.19;97989.98;603334;235;66867;-70
2022/11/27 04:22:29;;;;;;;;;;;;;;;24.51;45.62;97984.61;603330;235;65109;-71
2022/11/27 04:24:57;;;;;;;;;;;;;;;24.51;47.33;97991.88;603301;235;66729;-64
2022/11/27 04:27:24;;;;;;;;;;;;;;;24.50;45.87;97992.93;603280;235;66447;-64
2022/11/27 04:29:52;;;;;;;;;;;;;;;24.50;48.01;98007.20;603343;235;65039;-64
2022/11/27 04:32:19;;;;;;;;;;;;;;;24.47;46.89;97994.30;603294;235;65122;-64
2022/11/27 04:34:47;;;;;;;;;;;;;;;24.49;45.93;97996.70;603321;235;64746;-71
2022/11/27 04:37:15;;;;;;;;;;;;;;;24.46;45.65;97987.30;603295;235;62916;-71
2022/11/27 04:39:42;;;;;;;;;;;;;;;24.47;45.54;97980.04;603292;235;64709;-71
2022/11/27 04:42:10;;;;;;;;;;;;;;;24.47;46.15;97982.73;603301;235;66748;-71
2022/11/27 04:44:37;;;;;;;;;;;;;;;24.44;46.03;97984.07;603330;235;65023;-71
2022/11/27 04:47:04;;;;;;;;;;;;;;;24.44;46.86;97985.95;604020;234;66946;-71
2022/11/27 04:49:32;;;;;;;;;;;;;;;24.43;46.86;97993.19;604557;234;66905;-71
2022/11/27 04:51:59;;;;;;;;;;;;;;;24.43;45.54;97995.87;604597;234;64832;-70
2022/11/27 04:54:27;;;;;;;;;;;;;;;24.41;45.31;97998.02;604523;234;66808;-70
2022/11/27 04:56:55;;;;;;;;;;;;;;;24.41;47.18;98000.70;604640;234;66804;-71
2022/11/27 04:59:22;;;;;;;;;;;;;;;24.40;46.91;97999.10;604594;234;64900;-64
2022/11/27 05:01:50;;;;;;;;;;;;;;;24.40;47.94;98004.47;604561;234;66978;-64
2022/11/27 05:04:17;;;;;;;;;;;;;;;24.37;45.73;98005.81;604586;234;66825;-64
2022/11/27 05:06:45;;;;;;;;;;;;;;;24.39;46.91;98000.19;604589;234;62924;-64
2022/11/27 05:09:12;;;;;;;;;;;;;;;24.36;46.59;97993.47;604646;234;64741;-71
2022/11/27 05:11:40;;;;;;;;;;;;;;;24.36;45.49;97998.02;604655;234;64356;-71
2022/11/27 05:14:21;;;;;;;;;;;;;;;24.36;45.09;97995.33;604606;234;63027;-71
2022/11/27 05:16:50;;;;;;;;;;;;;;;24.34;45.64;97987.55;604617;234;66997;-71
2022/11/27 05:19:19;;;;;;;;;;;;;;;24.33;46.72;97995.87;604486;234;66958;-71
2022/11/27 05:21:47;;;;;;;;;;;;;;;24.34;46.40;98010.94;604630;234;65131;-71
2022/11/27 05:24:15;;;;;;;;;;;;;;;24.32;45.49;98008.50;604632;234;67002;-64
2022/11/27 05:26:43;;;;;;;;;;;;;;;24.31;46.72;98006.09;604602;234;66674;-65
2022/11/27 05:29:11;;;;;;;;;;;;;;;24.30;47.70;98001.78;604610;234;65063;-64
2022/11/27 05:31:39;;;;;;;;;;;;;;;24.29;46.86;98002.87;604618;234;66860;-65
2022/11/27 05:34:07;;;;;;;;;;;;;;;24.29;47.73;98013.61;604595;234;66659;-65
2022/11/27 05:36:35;;;;;;;;;;;;;;;24.27;47.38;98019.23;604667;234;62984;-64
2022/11/27 05:39:03;;;;;;;;;;;;;;;24.27;46.33;98029.98;604603;234;63966;-65
2022/11/27 05:41:31;;;;;;;;;;;;;;;24.26;47.36;98033.75;604613;234;66818;-65
2022/11/27 05:43:58;;;;;;;;;;;;;;;24.26;46.24;98031.07;604589;234;65054;-64
2022/11/27 05:46:25;;;;;;;;;;;;;;;24.26;46.12;98024.90;604540;234;65235;-64
2022/11/27 05:48:53;;;;;;;;;;;;;;;24.25;46.98;98032.13;604563;234;64431;-64
2022/11/27 05:51:21;;;;;;;;;;;;;;;24.25;46.18;98036.70;604620;234;62961;-64
2022/11/27 05:53:48;;;;;;;;;;;;;;;24.24;46.86;98043.16;604581;234;66983;-64
2022/11/27 05:56:17;;;;;;;;;;;;;;;24.21;46.08;98041.00;604619;234;66804;-65
2022/11/27 05:58:46;;;;;;;;;;;;;;;24.22;46.60;98039.92;604678;234;65054;-64
2022/11/27 06:01:14;;;;;;;;;;;;;;;24.20;47.93;98042.05;604618;234;64539;-64
2022/11/27 06:03:42;;;;;;;;;;;;;;;24.19;46.58;98027.03;604641;234;64492;-64
2022/11/27 06:06:11;;;;;;;;;;;;;;;24.18;46.11;98033.48;604577;234;62924;-65
2022/11/27 06:08:39;;;;;;;;;;;;;;;24.16;46.43;98033.73;604593;234;66739;-64
2022/11/27 06:11:08;;;;;;;;;;;;;;;24.17;45.68;98034.54;604613;234;66537;-64
2022/11/27 06:13:36;;;;;;;;;;;;;;;24.17;46.76;98037.22;604017;234;62722;-64
2022/11/27 06:16:07;;;;;;;;;;;;;;;24.14;46.39;98041.25;604518;234;64606;-64
2022/11/27 06:18:35;;;;;;;;;;;;;;;24.15;45.96;98034.83;604452;234;64375;-64
2022/11/27 06:21:07;;;;;;;;;;;;;;;24.14;46.47;98038.56;603571;234;65132;-71
2022/11/27 06:23:34;;;;;;;;;;;;;;;24.13;45.56;98045.02;604001;234;66786;-71
2022/11/27 06:26:16;;;;;;;;;;;;;;;24.12;46.15;98036.16;604207;234;66505;-71
2022/11/27 06:28:44;;;;;;;;;;;;;;;24.12;46.91;98049.59;604243;234;64965;-72
2022/11/27 06:31:15;;;;;;;;;;;;;;;24.12;45.68;98046.10;604225;234;45989;-65
2022/11/27 06:33:42;;;;;;;;;;;;;;;24.11;46.63;98047.95;604144;234;67154;-65
2022/11/27 06:36:10;;;;;;;;;;;;;;;24.10;45.77;98046.36;604511;234;65061;-72
2022/11/27 06:38:38;;;;;;;;;;;;;;;24.09;46.29;98044.75;604578;234;66935;-72
2022/11/27 06:41:06;;;;;;;;;;;;;;;24.09;46.95;98055.49;604640;234;66774;-72
2022/11/27 06:43:34;;;;;;;;;;;;;;;24.09;47.24;98063.55;604598;234;65058;-72
2022/11/27 06:46:02;;;;;;;;;;;;;;;24.08;47.26;98056.55;604354;234;66700;-65
2022/11/27 06:48:29;;;;;;;;;;;;;;;24.08;46.48;98055.75;603332;235;64778;-65
2022/11/27 06:51:04;;;;;;;;;;;;;;;24.08;47.15;98047.69;603335;235;62894;-64
2022/11/27 06:53:33;;;;;;;;;;;;;;;24.07;48.24;98041.52;603363;235;66553;-66
2022/11/27 06:56:01;;;;;;;;;;;;;;;24.05;47.30;98040.97;603315;235;64696;-66
2022/11/27 06:58:29;;;;;;;;;;;;;;;24.06;47.22;98039.92;603287;235;62752;-63
2022/11/27 07:00:59;;;;;;;;;;;;;;;24.05;46.34;98038.28;603330;235;65046;-63
2022/11/27 07:03:26;;;;;;;;;;;;;;;24.05;45.45;98040.97;603076;235;64689;-64
2022/11/27 07:05:53;;;;;;;;;;;;;;;24.05;46.74;98040.17;603302;235;63020;-64
2022/11/27 07:08:21;;;;;;;;;;;;;;;24.04;47.23;98043.94;603365;235;66968;-72
2022/11/27 07:10:49;;;;;;;;;;;;;;;24.03;46.75;98040.42;603326;235;67078;-71
2022/11/27 07:13:16;;;;;;;;;;;;;;;24.03;46.38;98034.25;603311;235;65145;-72
2022/11/27 07:15:44;;;;;;;;;;;;;;;24.02;47.06;98036.14;603348;235;67047;-71
2022/11/27 07:18:12;;;;;;;;;;;;;;;24.01;47.67;98029.16;603285;235;66843;-71
2022/11/27 07:20:39;;;;;;;;;;;;;;;24.01;47.81;98039.91;603361;235;65083;-71
2022/11/27 07:23:06;;;;;;;;;;;;;;;24.00;47.04;98043.64;603281;235;66977;-72
2022/11/27 07:25:35;;;;;;;;;;;;;;;24.01;48.40;98039.91;603304;235;64690;-72
2022/11/27 07:28:03;;;;;;;;;;;;;;;23.99;46.63;98042.04;603323;235;63106;-72
2022/11/27 07:30:30;;;;;;;;;;;;;;;23.99;46.26;98036.67;603284;235;64774;-72
2022/11/27 07:32:58;;;;;;;;;;;;;;;23.98;47.68;98035.07;603352;235;64754;-71
2022/11/27 07:35:25;;;;;;;;;;;;;;;23.98;47.61;98029.70;603304;235;63904;-72
2022/11/27 07:37:53;;;;;;;;;;;;;;;23.96;46.24;98037.20;603312;235;66962;-71
2022/11/27 07:40:20;;;;;;;;;;;;;;;23.97;46.49;98041.49;603332;235;66484;-72
2022/11/27 07:42:48;;;;;;;;;;;;;;;23.96;46.18;98039.09;603299;235;65100;-72
2022/11/27 07:45:17;;;;;;;;;;;;;;;23.95;46.58;98032.89;603307;235;67458;-71
2022/11/27 07:47:44;;;;;;;;;;;;;;;23.96;46.77;98029.16;604295;234;64880;-72
2022/11/27 07:50:12;;;;;;;;;;;;;;;23.96;48.34;98031.03;604614;234;63014;-72
2022/11/27 07:52:39;;;;;;;;;;;;;;;23.94;47.00;98031.29;604599;234;67033;-72
2022/11/27 07:55:07;;;;;;;;;;;;;;;23.93;47.32;98037.73;604582;234;66792;-71
2022/11/27 07:57:34;;;;;;;;;;;;;;;23.92;46.78;98031.54;604641;234;64908;-72
2022/11/27 08:00:02;;;;;;;;;;;;;;;23.92;46.50;98031.54;604609;234;66821;-72
2022/11/27 08:02:33;;;;;;;;;;;;;;;23.92;47.75;98030.73;604675;234;48746;-72
2022/11/27 08:05:00;;;;;;;;;;;;;;;23.91;46.83;98021.08;604613;234;63956;-72
2022/11/27 08:07:28;;;;;;;;;;;;;;;23.91;46.89;98034.50;604579;234;66742;-72
2022/11/27 08:09:57;;;;;;;;;;;;;;;23.89;47.46;98021.33;604592;234;64774;-72
2022/11/27 08:12:25;;;;;;;;;;;;;;;23.91;47.75;98029.14;604581;234;65011;-72
2022/11/27 08:14:52;;;;;;;;;;;;;;;23.88;47.49;98025.10;604604;234;67269;-72
2022/11/27 08:17:20;;;;;;;;;;;;;;;23.89;47.98;98037.45;604596;234;66916;-71
2022/11/27 08:19:47;;;;;;;;;;;;;;;23.87;46.66;98030.72;604582;234;65072;-72
2022/11/27 08:22:15;;;;;;;;;;;;;;;23.87;47.08;98038.78;604593;234;64684;-72
2022/11/27 08:24:43;;;;;;;;;;;;;;;23.87;47.73;98033.41;604643;234;66821;-72
2022/11/27 08:27:11;;;;;;;;;;;;;;;23.87;46.14;98038.78;604559;234;65093;-72
2022/11/27 08:29:38;;;;;;;;;;;;;;;23.86;47.43;98042.55;604616;234;66955;-72
2022/11/27 08:32:06;;;;;;;;;;;;;;;23.85;46.75;98043.63;604590;234;66970;-72
2022/11/27 08:34:34;;;;;;;;;;;;;;;23.84;45.45;98033.94;604577;234;65068;-71
2022/11/27 08:37:01;;;;;;;;;;;;;;;23.84;47.86;98033.94;604623;234;64614;-72
2022/11/27 08:39:28;;;;;;;;;;;;;;;23.84;47.81;98025.89;604558;234;64666;-72
2022/11/27 08:41:56;;;;;;;;;;;;;;;23.83;47.32;98029.66;604574;234;65068;-72
2022/11/27 08:44:23;;;;;;;;;;;;;;;23.83;47.12;98026.97;604598;234;66943;-72
2022/11/27 08:46:51;;;;;;;;;;;;;;;23.81;48.97;98026.42;603913;234;66867;-72
2022/11/27 08:49:18;;;;;;;;;;;;;;;23.81;47.21;98013.00;603351;235;63103;-72
2022/11/27 08:51:46;;;;;;;;;;;;;;;23.81;46.73;98021.86;603284;235;64803;-72
2022/11/27 08:54:13;;;;;;;;;;;;;;;23.81;47.26;98015.69;603310;235;64429;-72
2022/11/27 08:56:41;;;;;;;;;;;;;;;23.81;46.29;98010.31;603289;235;65073;-72
2022/11/27 08:59:08;;;;;;;;;;;;;;;23.80;46.38;98006.03;603297;235;66933;-64
2022/11/27 09:01:36;;;;;;;;;;;;;;;23.79;47.67;97999.03;603267;235;67634;-64
2022/11/27 09:04:04;;;;;;;;;;;;;;;23.79;46.76;98001.72;603342;235;64991;-64
2022/11/27 09:06:33;;;;;;;;;;;;;;;23.78;46.28;97995.55;603239;235;67013;-64
2022/11/27 09:09:02;;;;;;;;;;;;;;;23.78;46.92;97997.43;603310;235;67012;-65
2022/11/27 09:11:31;;;;;;;;;;;;;;;23.76;48.10;97988.83;603295;235;62586;-65
2022/11/27 09:13:58;;;;;;;;;;;;;;;23.77;47.43;97998.52;603292;235;66975;-65
2022/11/27 09:16:27;;;;;;;;;;;;;;;23.75;49.06;97993.39;603363;235;66864;-65
2022/11/27 09:18:55;;;;;;;;;;;;;;;23.75;46.91;97990.72;603298;235;64951;-65
2022/11/27 09:21:25;;;;;;;;;;;;;;;23.75;48.04;97979.17;603287;235;66705;-72
2022/11/27 09:23:54;;;;;;;;;;;;;;;23.74;47.69;97978.38;603294;235;64641;-65
2022/11/27 09:26:22;;;;;;;;;;;;;;;23.73;47.40;97984.00;603271;235;65104;-65
2022/11/27 09:28:50;;;;;;;;;;;;;;;23.73;48.75;97979.43;603317;235;65137;-65
2022/11/27 09:31:18;;;;;;;;;;;;;;;23.72;47.92;97967.09;603295;235;66866;-65
2022/11/27 09:33:46;;;;;;;;;;;;;;;23.72;48.17;97977.03;603278;235;65016;-65
2022/11/27 09:36:15;;;;;;;;;;;;;;;23.71;48.42;97968.17;603269;235;66770;-65
2022/11/27 09:38:42;;;;;;;;;;;;;;;23.70;47.71;97972.68;603259;235;64763;-65
2022/11/27 09:41:12;;;;;;;;;;;;;;;23.69;47.57;97965.72;603294;235;62829;-65
2022/11/27 09:43:47;;;;;;;;;;;;;;;23.69;46.94;97963.03;603343;235;64742;-65
2022/11/27 09:46:16;;;;;;;;;;;;;;;23.70;47.82;97966.52;603328;234;65491;-64
2022/11/27 09:48:45;;;;;;;;;;;;;;;23.67;48.58;97953.63;604407;234;65015;-64
2022/11/27 09:51:20;;;;;;;;;;;;;;;23.67;47.19;97949.06;604550;234;66896;-64
2022/11/27 09:53:49;;;;;;;;;;;;;;;23.68;48.12;97960.59;604253;234;66848;-64
2022/11/27 09:56:18;;;;;;;;;;;;;;;23.66;47.94;97952.83;604343;234;65077;-71
2022/11/27 09:58:56;;;;;;;;;;;;;;;23.66;47.67;97952.03;604636;234;69434;-72
2022/11/27 10:01:27;;;;;;;;;;;;;;;23.65;48.42;97945.86;604510;234;66814;-72
2022/11/27 10:03:54;;;;;;;;;;;;;;;23.65;48.41;97940.50;604379;234;65107;-71
2022/11/27 10:06:27;;;;;;;;;;;;;;;23.64;48.39;97935.37;604607;234;66980;-72
2022/11/27 10:09:02;;;;;;;;;;;;;;;23.62;48.60;97935.63;604637;234;66305;-72
2022/11/27 10:11:31;;;;;;;;;;;;;;;23.62;47.93;97924.09;600135;234;62980;-72
2022/11/27 10:14:03;;;;;;;;;;;;;;;23.59;47.64;97920.06;604644;234;64445;-64
2022/11/27 10:16:41;;;;;;;;;;;;;;;23.60;47.17;97920.87;604444;234;64788;-65
2022/11/27 10:19:25;;;;;;;;;;;;;;;23.60;48.43;97910.13;604614;234;61701;-64
2022/11/27 10:21:55;;;;;;;;;;;;;;;23.58;47.95;97906.94;604599;234;67015;-64
2022/11/27 10:24:27;;;;;;;;;;;;;;;23.57;46.78;97914.19;604630;234;66514;-64
2022/11/27 10:26:56;;;;;;;;;;;;;;;23.57;47.88;97900.77;604640;234;65136;-64
2022/11/27 10:29:37;;;;;;;;;;;;;;;23.56;47.74;97899.14;604623;234;68835;-64
2022/11/27 10:32:06;;;;;;;;;;;;;;;23.56;48.93;97892.97;604585;234;64405;-65
2022/11/27 10:34:35;;;;;;;;;;;;;;;23.55;47.69;97891.38;603639;234;63038;-64
2022/11/27 10:37:04;;;;;;;;;;;;;;;23.55;47.66;97894.05;604619;234;64465;-65
2022/11/27 10:39:42;;;;;;;;;;;;;;;23.55;47.97;97896.73;604555;234;64749;-65
2022/11/27 10:42:11;;;;;;;;;;;;;;;23.53;47.15;97883.58;604560;234;65173;-65
2022/11/27 10:44:40;;;;;;;;;;;;;;;23.54;48.11;97876.33;604633;234;67027;-65
2022/11/27 10:47:10;;;;;;;;;;;;;;;23.52;47.95;97873.09;603570;234;64792;-65
2022/11/27 10:49:39;;;;;;;;;;;;;;;23.51;46.96;97874.98;603311;235;64928;-65
2022/11/27 10:52:07;;;;;;;;;;;;;;;23.51;47.59;97880.34;603325;235;66770;-65
2022/11/27 10:54:36;;;;;;;;;;;;;;;23.51;48.05;97871.50;603220;235;66746;-65
2022/11/27 10:57:18;;;;;;;;;;;;;;;23.50;47.97;97868.02;603333;235;63012;-65
2022/11/27 10:59:47;;;;;;;;;;;;;;;23.49;47.36;97855.69;603383;235;66963;-65
2022/11/27 11:02:26;;;;;;;;;;;;;;;23.49;46.35;97855.69;602299;235;66679;-65
2022/11/27 11:04:54;;;;;;;;;;;;;;;23.48;47.58;97856.73;603319;235;65121;-72
2022/11/27 11:07:26;;;;;;;;;;;;;;;23.47;48.20;97847.09;603228;235;67053;-72
2022/11/27 11:09:54;;;;;;;;;;;;;;;23.46;48.76;97851.66;603334;235;64728;-72
2022/11/27 11:12:22;;;;;;;;;;;;;;;23.45;47.68;97844.66;603310;235;65084;-72
2022/11/27 11:14:51;;;;;;;;;;;;;;;23.45;47.18;97850.03;603352;235;67002;-72
2022/11/27 11:17:20;;;;;;;;;;;;;;;23.45;48.73;97839.30;603325;235;64731;-72
2022/11/27 11:19:47;;;;;;;;;;;;;;;23.45;48.28;97836.61;603128;235;65067;-72
2022/11/27 11:22:16;;;;;;;;;;;;;;;23.44;47.20;97835.02;603310;235;64827;-72
2022/11/27 11:24:48;;;;;;;;;;;;;;;23.43;48.23;97830.70;603361;235;64173;-72
2022/11/27 11:27:17;;;;;;;;;;;;;;;23.42;49.43;97823.73;603274;235;62935;-71
2022/11/27 11:29:49;;;;;;;;;;;;;;;23.42;48.47;97833.67;603238;235;64288;-71
2022/11/27 11:32:29;;;;;;;;;;;;;;;23.42;47.94;97825.62;603309;235;66885;-71
2022/11/27 11:35:02;;;;;;;;;;;;;;;23.41;47.78;97821.34;603319;235;63244;-71
2022/11/27 11:37:37;;;;;;;;;;;;;;;23.40;48.90;97817.03;603060;235;65435;-72
2022/11/27 11:40:06;;;;;;;;;;;;;;;23.39;49.15;97812.75;603318;235;66613;-71
2022/11/27 11:42:35;;;;;;;;;;;;;;;23.39;48.99;97812.75;603385;235;65165;-71
2022/11/27 11:45:13;;;;;;;;;;;;;;;23.38;48.98;97816.48;603320;235;64483;-71
2022/11/27 11:47:45;;;;;;;;;;;;;;;23.37;49.42;97815.69;603233;235;66685;-72
2022/11/27 11:50:14;;;;;;;;;;;;;;;23.36;47.92;97805.23;603343;235;65390;-71
2022/11/27 11:52:43;;;;;;;;;;;;;;;23.36;48.64;97808.72;603392;235;66492;-71
2022/11/27 11:55:21;;;;;;;;;;;;;;;23.35;47.87;97808.97;602957;235;67735;-71
2022/11/27 11:57:53;;;;;;;;;;;;;;;23.35;48.02;97811.66;603118;235;63034;-71
2022/11/27 12:00:21;;;;;;;;;;;;;;;23.35;49.10;97811.66;603116;235;64328;-71
2022/11/27 12:03:02;;;;;;;;;;;;;;;23.33;49.31;97808.45;603190;235;66516;-71
2022/11/27 12:05:47;;;;;;;;;;;;;;;23.32;48.18;97807.63;603284;235;62942;-71
2022/11/27 12:08:26;;;;;;;;;;;;;;;23.32;48.88;97806.83;603296;235;66864;-71
2022/11/27 12:10:59;;;;;;;;;;;;;;;23.32;49.32;97798.78;603388;235;66617;-71
2022/11/27 12:13:28;;;;;;;;;;;;;;;23.30;48.11;97801.75;603307;235;67019;-72
2022/11/27 12:16:05;;;;;;;;;;;;;;;23.31;48.28;97799.86;602956;235;66762;-72
2022/11/27 12:18:37;;;;;;;;;;;;;;;23.29;49.40;97808.16;602395;235;66723;-72
2022/11/27 12:21:06;;;;;;;;;;;;;;;23.29;47.18;97802.00;603271;235;65001;-72
2022/11/27 12:23:52;;;;;;;;;;;;;;;23.28;48.29;97801.20;603237;235;64418;-72
2022/11/27 12:26:38;;;;;;;;;;;;;;;23.28;48.31;97811.93;603238;235;66750;-71
2022/11/27 12:29:19;;;;;;;;;;;;;;;23.26;48.62;97808.70;603298;235;65308;-70
2022/11/27 12:31:48;;;;;;;;;;;;;;;23.26;49.57;97808.70;603361;235;66695;-71
2022/11/27 12:34:24;;;;;;;;;;;;;;;23.25;49.58;97805.22;602358;235;64310;-71
2022/11/27 12:37:05;;;;;;;;;;;;;;;23.24;47.81;97811.66;603294;235;63106;-72
2022/11/27 12:39:34;;;;;;;;;;;;;;;23.25;47.43;97807.10;603164;235;66524;-71
2022/11/27 12:42:11;;;;;;;;;;;;;;;23.23;48.89;97809.23;603096;235;64310;-70
2022/11/27 12:44:44;;;;;;;;;;;;;;;23.24;49.91;97814.34;603208;235;63820;-71
2022/11/27 12:47:13;;;;;;;;;;;;;;;23.24;50.07;97811.66;603297;235;66764;-70
2022/11/27 12:49:42;;;;;;;;;;;;;;;23.24;50.36;97816.20;603234;235;66875;-70
2022/11/27 12:52:14;;;;;;;;;;;;;;;23.22;49.81;97813.80;603306;235;65070;-70
2022/11/27 12:54:51;;;;;;;;;;;;;;;23.23;49.15;97819.96;603292;235;63924;-71
2022/11/27 12:57:23;;;;;;;;;;;;;;;23.22;49.37;97813.80;603345;235;66524;-71
2022/11/27 12:59:55;;;;;;;;;;;;;;;23.25;48.47;97818.63;603205;235;62931;-71